sensor_id;sensor_type;location;lat;lon;timestamp;pressure;altitude;pressure_sealevel;temperature;humidity
78825;BME280;68176;45.554;10.220;2023-06-14T02:00:05;99313.50;;;24.02;51.38
78825;BME280;68176;45.554;10.220;2023-06-14T02:08:38;99339.97;;;24.10;51.23
78825;BME280;68176;45.554;10.220;2023-06-14T02:19:58;99322.00;;;23.99;51.70
78825;BME280;68176;45.554;10.220;2023-06-14T02:22:53;99324.84;;;24.04;51.65
78825;BME280;68176;45.554;10.220;2023-06-14T02:38:09;99321.44;;;23.97;51.74
78825;BME280;68176;45.554;10.220;2023-06-14T07:04:22;99420.63;;;23.79;51.87
78825;BME280;68176;45.554;10.220;2023-06-14T07:06:48;99419.63;;;23.62;52.21
78825;BME280;68176;45.554;10.220;2023-06-14T07:09:15;99422.09;;;23.27;53.15
78825;BME280;68176;45.554;10.220;2023-06-14T07:11:45;99425.16;;;23.12;53.98
78825;BME280;68176;45.554;10.220;2023-06-14T07:14:15;99425.81;;;23.26;53.75
78825;BME280;68176;45.554;10.220;2023-06-14T07:16:45;99439.25;;;23.37;53.41
78825;BME280;68176;45.554;10.220;2023-06-14T07:19:14;99440.59;;;23.28;53.95
78825;BME280;68176;45.554;10.220;2023-06-14T07:21:44;99430.88;;;23.16;53.92
78825;BME280;68176;45.554;10.220;2023-06-14T07:24:15;99434.34;;;22.98;53.93
78825;BME280;68176;45.554;10.220;2023-06-14T07:26:44;99437.31;;;23.08;54.49
78825;BME280;68176;45.554;10.220;2023-06-14T07:29:15;99433.31;;;23.17;54.90
78825;BME280;68176;45.554;10.220;2023-06-14T07:31:44;99435.34;;;23.22;54.19
78825;BME280;68176;45.554;10.220;2023-06-14T07:34:14;99440.44;;;23.05;53.99
78825;BME280;68176;45.554;10.220;2023-06-14T07:36:45;99444.78;;;23.06;53.78
78825;BME280;68176;45.554;10.220;2023-06-14T07:39:14;99444.59;;;22.83;54.29
78825;BME280;68176;45.554;10.220;2023-06-14T07:41:45;99444.59;;;23.01;53.57
78825;BME280;68176;45.554;10.220;2023-06-14T07:44:15;99434.91;;;22.82;54.86
78825;BME280;68176;45.554;10.220;2023-06-14T07:46:45;99438.78;;;22.86;54.79
78825;BME280;68176;45.554;10.220;2023-06-14T07:49:15;99439.25;;;23.01;55.38
78825;BME280;68176;45.554;10.220;2023-06-14T07:51:45;99438.75;;;23.29;54.30
78825;BME280;68176;45.554;10.220;2023-06-14T07:54:15;99436.59;;;23.19;53.07
78825;BME280;68176;45.554;10.220;2023-06-14T07:56:45;99440.50;;;23.42;53.23
78825;BME280;68176;45.554;10.220;2023-06-14T07:59:15;99441.56;;;23.16;53.27
78825;BME280;68176;45.554;10.220;2023-06-14T08:01:45;99443.75;;;23.44;52.98
78825;BME280;68176;45.554;10.220;2023-06-14T08:04:15;99448.31;;;23.36;53.04
78825;BME280;68176;45.554;10.220;2023-06-14T08:06:45;99443.38;;;23.40;52.30
78825;BME280;68176;45.554;10.220;2023-06-14T08:09:15;99442.38;;;23.34;52.84
78825;BME280;68176;45.554;10.220;2023-06-14T08:11:45;99438.50;;;23.67;52.30
78825;BME280;68176;45.554;10.220;2023-06-14T08:14:15;99444.28;;;23.64;52.12
78825;BME280;68176;45.554;10.220;2023-06-14T08:16:45;99432.41;;;23.60;52.14
78825;BME280;68176;45.554;10.220;2023-06-14T08:19:15;99444.50;;;23.51;53.31
78825;BME280;68176;45.554;10.220;2023-06-14T08:21:45;99446.22;;;23.75;54.09
78825;BME280;68176;45.554;10.220;2023-06-14T08:24:15;99446.31;;;23.68;52.30
78825;BME280;68176;45.554;10.220;2023-06-14T08:26:45;99447.41;;;23.79;51.13
78825;BME280;68176;45.554;10.220;2023-06-14T08:29:15;99449.75;;;23.87;51.26
78825;BME280;68176;45.554;10.220;2023-06-14T08:31:46;99448.28;;;24.03;51.56
78825;BME280;68176;45.554;10.220;2023-06-14T08:34:15;99450.53;;;23.76;53.19
78825;BME280;68176;45.554;10.220;2023-06-14T08:36:45;99453.22;;;23.76;52.88
78825;BME280;68176;45.554;10.220;2023-06-14T08:39:15;99449.19;;;23.85;52.40
78825;BME280;68176;45.554;10.220;2023-06-14T08:41:48;99450.66;;;23.81;52.68
78825;BME280;68176;45.554;10.220;2023-06-14T08:44:16;99447.72;;;23.71;51.96
78825;BME280;68176;45.554;10.220;2023-06-14T08:46:45;99452.28;;;23.52;54.05
78825;BME280;68176;45.554;10.220;2023-06-14T08:49:16;99459.09;;;23.96;52.79
78825;BME280;68176;45.554;10.220;2023-06-14T08:51:45;99459.09;;;23.96;53.01
78825;BME280;68176;45.554;10.220;2023-06-14T08:54:15;99461.88;;;23.60;52.46
78825;BME280;68176;45.554;10.220;2023-06-14T08:56:45;99462.75;;;23.72;53.20
78825;BME280;68176;45.554;10.220;2023-06-14T08:59:15;99468.84;;;23.79;51.99
78825;BME280;68176;45.554;10.220;2023-06-14T09:01:45;99466.44;;;23.71;52.40
78825;BME280;68176;45.554;10.220;2023-06-14T09:04:15;99465.34;;;23.78;52.37
78825;BME280;68176;45.554;10.220;2023-06-14T09:06:45;99468.53;;;23.99;52.27
78825;BME280;68176;45.554;10.220;2023-06-14T09:09:15;99467.59;;;23.93;51.74
78825;BME280;68176;45.554;10.220;2023-06-14T09:11:45;99476.28;;;23.59;52.27
78825;BME280;68176;45.554;10.220;2023-06-14T09:14:15;99477.94;;;23.89;52.73
78825;BME280;68176;45.554;10.220;2023-06-14T09:16:45;99472.75;;;23.95;53.42
78825;BME280;68176;45.554;10.220;2023-06-14T09:19:23;99481.63;;;23.77;52.66
78825;BME280;68176;45.554;10.220;2023-06-14T09:21:50;99473.72;;;23.82;52.08
78825;BME280;68176;45.554;10.220;2023-06-14T09:24:18;99478.63;;;23.85;52.71
78825;BME280;68176;45.554;10.220;2023-06-14T09:26:50;99473.00;;;23.75;53.74
78825;BME280;68176;45.554;10.220;2023-06-14T09:29:16;99478.59;;;24.03;52.69
78825;BME280;68176;45.554;10.220;2023-06-14T09:31:46;99483.34;;;24.19;51.95
78825;BME280;68176;45.554;10.220;2023-06-14T09:34:16;99478.19;;;23.88;51.80
78825;BME280;68176;45.554;10.220;2023-06-14T09:36:45;99471.19;;;23.87;52.18
78825;BME280;68176;45.554;10.220;2023-06-14T09:39:17;99474.34;;;23.96;52.40
78825;BME280;68176;45.554;10.220;2023-06-14T09:41:45;99477.72;;;24.21;51.84
78825;BME280;68176;45.554;10.220;2023-06-14T10:13:50;99478.63;;;24.68;50.45
78825;BME280;68176;45.554;10.220;2023-06-14T10:45:13;99434.09;;;24.90;45.66
78825;BME280;68176;45.554;10.220;2023-06-14T14:25:53;99327.09;;;28.39;34.88
78825;BME280;68176;45.554;10.220;2023-06-14T14:28:37;99316.84;;;28.88;33.09
78825;BME280;68176;45.554;10.220;2023-06-14T14:31:21;99298.13;;;29.33;33.60
78825;BME280;68176;45.554;10.220;2023-06-14T14:33:49;99296.56;;;30.03;31.32
78825;BME280;68176;45.554;10.220;2023-06-14T14:36:34;99303.00;;;30.37;30.19
78825;BME280;68176;45.554;10.220;2023-06-14T14:39:03;99316.28;;;30.44;29.93
78825;BME280;68176;45.554;10.220;2023-06-14T14:41:28;99306.25;;;30.49;29.93
78825;BME280;68176;45.554;10.220;2023-06-14T14:43:56;99319.88;;;30.98;29.57
78825;BME280;68176;45.554;10.220;2023-06-14T14:46:27;99301.41;;;30.16;29.67
78825;BME280;68176;45.554;10.220;2023-06-14T14:49:18;99317.63;;;29.55;29.61
78825;BME280;68176;45.554;10.220;2023-06-14T14:51:58;99310.59;;;30.25;29.72
78825;BME280;68176;45.554;10.220;2023-06-14T14:54:24;99312.72;;;30.63;29.14
78825;BME280;68176;45.554;10.220;2023-06-14T14:56:50;99309.56;;;31.10;27.87
78825;BME280;68176;45.554;10.220;2023-06-14T14:59:24;99281.66;;;31.10;29.75
78825;BME280;68176;45.554;10.220;2023-06-14T15:01:49;99308.16;;;31.18;29.49
78825;BME280;68176;45.554;10.220;2023-06-14T15:04:23;99290.38;;;30.97;29.11
78825;BME280;68176;45.554;10.220;2023-06-14T15:06:48;99312.56;;;31.04;28.80
78825;BME280;68176;45.554;10.220;2023-06-14T15:09:18;99295.16;;;31.20;28.89
78825;BME280;68176;45.554;10.220;2023-06-14T15:11:48;99313.13;;;31.01;29.81
78825;BME280;68176;45.554;10.220;2023-06-14T15:14:18;99297.25;;;30.64;29.56
78825;BME280;68176;45.554;10.220;2023-06-14T15:16:54;99292.47;;;30.41;29.08
78825;BME280;68176;45.554;10.220;2023-06-14T15:19:19;99299.22;;;30.38;29.93
78825;BME280;68176;45.554;10.220;2023-06-14T15:21:48;99312.72;;;30.53;27.24
78825;BME280;68176;45.554;10.220;2023-06-14T15:24:18;99293.56;;;30.25;28.35
78825;BME280;68176;45.554;10.220;2023-06-14T15:26:48;99282.75;;;29.64;29.85
78825;BME280;68176;45.554;10.220;2023-06-14T15:29:18;99300.34;;;30.02;30.38
78825;BME280;68176;45.554;10.220;2023-06-14T15:31:48;99283.50;;;30.35;31.58
78825;BME280;68176;45.554;10.220;2023-06-14T15:34:18;99299.22;;;30.38;30.65
78825;BME280;68176;45.554;10.220;2023-06-14T15:36:48;99304.50;;;30.89;28.13
78825;BME280;68176;45.554;10.220;2023-06-14T15:39:18;99312.63;;;30.84;28.98
78825;BME280;68176;45.554;10.220;2023-06-14T15:41:48;99304.91;;;31.16;28.02
78825;BME280;68176;45.554;10.220;2023-06-14T15:44:21;99303.53;;;31.18;29.95
78825;BME280;68176;45.554;10.220;2023-06-14T15:46:48;99282.50;;;31.49;29.34
78825;BME280;68176;45.554;10.220;2023-06-14T15:49:18;99292.59;;;31.78;28.70
78825;BME280;68176;45.554;10.220;2023-06-14T15:51:48;99294.34;;;31.63;27.35
78825;BME280;68176;45.554;10.220;2023-06-14T15:54:18;99272.47;;;31.50;28.87
78825;BME280;68176;45.554;10.220;2023-06-14T15:56:48;99288.06;;;31.24;29.49
78825;BME280;68176;45.554;10.220;2023-06-14T15:59:27;99276.19;;;31.15;30.18
78825;BME280;68176;45.554;10.220;2023-06-14T16:01:53;99293.06;;;31.02;30.32
78825;BME280;68176;45.554;10.220;2023-06-14T16:04:19;99306.56;;;31.12;29.76
78825;BME280;68176;45.554;10.220;2023-06-14T16:06:48;99304.72;;;31.02;30.01
78825;BME280;68176;45.554;10.220;2023-06-14T16:09:18;99284.09;;;31.06;29.36
78825;BME280;68176;45.554;10.220;2023-06-14T16:11:48;99295.00;;;31.45;29.38
78825;BME280;68176;45.554;10.220;2023-06-14T16:14:18;99299.19;;;31.23;29.66
78825;BME280;68176;45.554;10.220;2023-06-14T16:16:48;99308.31;;;31.37;29.41
78825;BME280;68176;45.554;10.220;2023-06-14T16:19:18;99302.72;;;31.23;29.75
78825;BME280;68176;45.554;10.220;2023-06-14T16:21:48;99294.53;;;31.28;29.84
78825;BME280;68176;45.554;10.220;2023-06-14T16:24:18;99315.97;;;31.68;28.06
78825;BME280;68176;45.554;10.220;2023-06-14T16:26:48;99301.97;;;31.56;28.19
78825;BME280;68176;45.554;10.220;2023-06-14T16:29:37;99313.97;;;31.45;28.49
78825;BME280;68176;45.554;10.220;2023-06-14T16:32:04;99309.97;;;30.68;28.35
78825;BME280;68176;45.554;10.220;2023-06-14T16:34:35;99334.66;;;30.52;29.84
78825;BME280;68176;45.554;10.220;2023-06-14T16:37:16;99287.31;;;30.34;28.89
78825;BME280;68176;45.554;10.220;2023-06-14T16:40:08;99335.41;;;30.67;28.60
78825;BME280;68176;45.554;10.220;2023-06-14T16:42:35;99314.88;;;30.56;28.46
78825;BME280;68176;45.554;10.220;2023-06-14T16:45:03;99333.19;;;30.90;28.67
78825;BME280;68176;45.554;10.220;2023-06-14T16:47:28;99312.06;;;30.87;29.27
78825;BME280;68176;45.554;10.220;2023-06-14T16:49:58;99331.50;;;31.09;29.17
78825;BME280;68176;45.554;10.220;2023-06-14T16:52:28;99328.31;;;30.87;28.57
78825;BME280;68176;45.554;10.220;2023-06-14T16:54:58;99324.56;;;30.78;30.16
78825;BME280;68176;45.554;10.220;2023-06-14T16:57:31;99331.59;;;30.74;30.03
78825;BME280;68176;45.554;10.220;2023-06-14T17:03:48;99318.16;;;30.23;30.23
78825;BME280;68176;45.554;10.220;2023-06-14T17:18:51;99364.16;;;30.18;31.22
78825;BME280;68176;45.554;10.220;2023-06-14T17:25:12;99336.56;;;30.01;31.09
78825;BME280;68176;45.554;10.220;2023-06-14T17:27:53;99372.84;;;30.00;32.36
78825;BME280;68176;45.554;10.220;2023-06-14T17:30:36;99353.09;;;29.84;32.40
78825;BME280;68176;45.554;10.220;2023-06-14T17:33:21;99362.56;;;29.87;31.83
78825;BME280;68176;45.554;10.220;2023-06-14T17:35:52;99335.44;;;29.56;32.74
78825;BME280;68176;45.554;10.220;2023-06-14T17:38:17;99361.38;;;29.52;32.72
78825;BME280;68176;45.554;10.220;2023-06-14T17:40:42;99366.72;;;29.32;32.53
78825;BME280;68176;45.554;10.220;2023-06-14T17:46:06;99349.75;;;28.85;33.82
78825;BME280;68176;45.554;10.220;2023-06-14T17:52:03;99386.75;;;28.47;34.65
78825;BME280;68176;45.554;10.220;2023-06-14T17:57:35;99382.38;;;28.36;35.17
78825;BME280;68176;45.554;10.220;2023-06-14T18:00:09;99358.19;;;27.83;36.87
78825;BME280;68176;45.554;10.220;2023-06-14T18:02:47;99386.84;;;27.94;36.58
78825;BME280;68176;45.554;10.220;2023-06-14T18:05:13;99356.97;;;27.69;35.61
78825;BME280;68176;45.554;10.220;2023-06-14T18:07:42;99362.16;;;27.75;36.32
78825;BME280;68176;45.554;10.220;2023-06-14T18:10:08;99351.44;;;27.53;36.03
78825;BME280;68176;45.554;10.220;2023-06-14T18:12:37;99360.53;;;27.47;36.10
78825;BME280;68176;45.554;10.220;2023-06-14T18:15:12;99374.53;;;27.49;36.29
78825;BME280;68176;45.554;10.220;2023-06-14T18:17:40;99388.94;;;27.38;37.19
78825;BME280;68176;45.554;10.220;2023-06-14T18:20:20;99385.47;;;27.16;37.34
78825;BME280;68176;45.554;10.220;2023-06-14T18:22:46;99380.94;;;27.00;37.93
78825;BME280;68176;45.554;10.220;2023-06-14T18:25:13;99378.28;;;26.83;38.21
78825;BME280;68176;45.554;10.220;2023-06-14T18:27:44;99383.94;;;26.82;38.83
78825;BME280;68176;45.554;10.220;2023-06-14T18:30:10;99400.69;;;26.89;38.09
78825;BME280;68176;45.554;10.220;2023-06-14T18:32:42;99382.22;;;26.76;38.18
78825;BME280;68176;45.554;10.220;2023-06-14T18:35:12;99387.03;;;26.57;38.02
78825;BME280;68176;45.554;10.220;2023-06-14T18:37:49;99412.72;;;26.65;39.31
78825;BME280;68176;45.554;10.220;2023-06-14T18:40:17;99415.81;;;26.57;38.86
78825;BME280;68176;45.554;10.220;2023-06-14T18:42:43;99378.84;;;26.30;39.30
78825;BME280;68176;45.554;10.220;2023-06-14T18:45:13;99387.06;;;26.24;39.87
78825;BME280;68176;45.554;10.220;2023-06-14T18:47:42;99437.91;;;26.42;40.37
78825;BME280;68176;45.554;10.220;2023-06-14T18:53:19;99438.72;;;26.26;40.11
78825;BME280;68176;45.554;10.220;2023-06-14T19:02:38;99446.47;;;26.11;40.05
78825;BME280;68176;45.554;10.220;2023-06-14T19:09:05;99453.94;;;25.92;40.64
78825;BME280;68176;45.554;10.220;2023-06-14T19:19:28;99480.75;;;25.75;41.02
78825;BME280;68176;45.554;10.220;2023-06-14T19:29:38;99481.53;;;25.59;40.56
